Warroad, MN

18:30 CDT le 01 septembre 2014 (GMT -0500)
Warroad International-Carlson | Change Station
CLOSE
Current Station
Aéroport
Location: Warroad,
Altitude: 1073 ft
Stations météo à proximité

Alt. 1073 ft 48.94 °N, 95.35 °W | Updated 16 minutes ago

Clear
Ciel dégagé
63 ° F
Paraît 63 ° F
N
14
Vent Variable Vent de OSO
Gusts 17 mph

Aujourd'hui
Haut(e) -- | Bas -- ° F
--% Risque de précip.
Hier
Haut(e) -- | Bas -- ° F
Precip. -- pouce
6:38 AM 8:03 PM
Lune montante, 45% visible
Pression 29.70 pouce
Visibilité 10.0 Miles terrestres
Nuages Ciel dégagé
Point de rosée 55 ° F
Humidité 77%
Précipitations 0.00 pouce
Profondeur de la couche neigeuse Non disponible.
UV 1 sur 12
Pollen 5.50 sur 12
Qualité de l'air Non disponible.
Flu Activity Non disponible.
METAR KRRT 012314Z AUTO 25012G15KT 10SM VCTS CLR 17/13 A2970 RMK AO2 LTG DSNT NE AND SE

More Conditions Fewer Conditions

Pression 29.70 pouce
Visibilité 10.0 Miles terrestres
Nuages Ciel dégagé
Point de rosée 55 ° F
Humidité 77%
Précipitations 0.00 pouce
Profondeur de la couche neigeuse Non disponible.
UV 1 sur 12
Pollen 5.50 sur 12
Qualité de l'air Non disponible.
Flu Activity Non disponible.
METAR KRRT 012314Z AUTO 25012G15KT 10SM VCTS CLR 17/13 A2970 RMK AO2 LTG DSNT NE AND SE

More Conditions Fewer Conditions

10-Day Weather Forecast

Almanac

Astronomie

Sep. 01, 2014 Lever Coucher
Temps réel 06:38 CDT 20:03 CDT
Crépuscule civil 06:05 CDT 20:36 CDT
Crépuscule nautique 05:25 CDT 21:15 CDT
Crépuscule astronomique 04:41 CDT 21:58 CDT
Lune 13:59 CDT 23:30 CDT
Durée de lumière visible 14h 31m
Longueur du jour
13h 25m
Tomorrow will be 3m 28s shorter.
Lune montante, 45% of the Moon is Illuminated
Aujourd'hui
Lune montante
Sep 2
Premier quartier
Sep 8
Pleine lune
Sep 15
Dernier quartier
Sep 24
Nouveau

Extrêmes aujourd'hui

State Highs State Lows

Community

WunderPhotos

Upload Photos

1,749,440 Photos téléchargées !

Nearby

Épaisseur de neige

Station Depth Altitude
Pas de nouvelles chutes de neige

Activité sismique

Ville Distance Mag. Time & Date
No recent earthquake activity has been reported nearby.
Minimum magnitude displayed is 2.5.

Températures des eaux côtières

Lieu Température
Aucun rapport de station

Stations météo à proximité